createdAt,value
2024-01-21T00:00:16.530Z,63.35
2024-01-21T00:03:05.786Z,62.93
2024-01-21T00:05:34.330Z,63.08
2024-01-21T00:08:02.683Z,63.64
2024-01-21T00:10:30.960Z,63.54
2024-01-21T00:12:59.123Z,64.07
2024-01-21T00:15:27.784Z,64.34
2024-01-21T00:17:56.384Z,64.09
2024-01-21T00:20:24.816Z,64.20
2024-01-21T00:22:52.998Z,63.68
2024-01-21T00:25:21.524Z,63.72
2024-01-21T00:27:49.831Z,64.14
2024-01-21T00:30:18.037Z,63.91
2024-01-21T00:32:46.322Z,63.82
2024-01-21T00:35:14.668Z,63.77
2024-01-21T00:37:42.909Z,63.62
2024-01-21T00:40:11.744Z,63.79
2024-01-21T00:42:39.810Z,63.60
2024-01-21T00:45:09.090Z,63.45
2024-01-21T00:47:37.306Z,63.55
2024-01-21T00:50:06.273Z,63.45
2024-01-21T00:52:34.435Z,63.39
2024-01-21T00:55:02.700Z,63.41
2024-01-21T00:57:31.024Z,63.18
2024-01-21T00:59:59.443Z,63.26
2024-01-21T01:02:27.701Z,63.11
2024-01-21T01:04:55.830Z,63.10
2024-01-21T01:07:24.045Z,63.12
2024-01-21T01:09:52.468Z,62.93
2024-01-21T01:12:20.831Z,63.28
2024-01-21T01:14:48.981Z,63.83
2024-01-21T01:17:17.192Z,63.95
2024-01-21T01:19:45.716Z,64.02
2024-01-21T01:22:13.990Z,64.13
2024-01-21T01:24:43.277Z,64.31
2024-01-21T01:27:11.508Z,64.52
2024-01-21T01:29:40.422Z,63.94
2024-01-21T01:32:08.543Z,63.85
2024-01-21T01:34:36.885Z,64.01
2024-01-21T01:37:06.012Z,63.97
2024-01-21T01:39:34.222Z,63.74
2024-01-21T01:42:02.743Z,63.41
2024-01-21T01:44:30.945Z,63.49
2024-01-21T01:46:59.222Z,63.52
2024-01-21T01:49:28.290Z,63.60
2024-01-21T01:51:56.660Z,64.14
2024-01-21T01:54:24.922Z,63.82
2024-01-21T01:56:53.116Z,63.26
2024-01-21T01:59:21.248Z,63.84
2024-01-21T02:01:49.587Z,63.89
2024-01-21T02:04:18.019Z,63.90
2024-01-21T02:06:46.394Z,63.47
2024-01-21T02:09:14.742Z,63.10
2024-01-21T02:11:42.990Z,63.37
2024-01-21T02:14:14.339Z,63.23
2024-01-21T02:16:42.540Z,62.81
2024-01-21T02:19:28.690Z,62.58
2024-01-21T02:21:57.070Z,62.41
2024-01-21T02:24:32.311Z,62.14
2024-01-21T02:27:00.835Z,61.90
2024-01-21T02:29:28.968Z,61.75
2024-01-21T02:31:58.069Z,61.58
2024-01-21T02:34:26.193Z,62.39
2024-01-21T02:36:54.383Z,62.61
2024-01-21T02:39:22.913Z,62.59
2024-01-21T02:41:51.093Z,62.44
2024-01-21T02:44:19.444Z,62.24
2024-01-21T02:46:47.629Z,62.21
2024-01-21T02:49:18.126Z,62.31
2024-01-21T02:51:46.577Z,62.55
2024-01-21T02:54:14.824Z,62.60
2024-01-21T02:56:43.173Z,62.71
2024-01-21T02:59:11.806Z,62.85
2024-01-21T03:01:40.610Z,62.95
2024-01-21T03:04:13.440Z,62.70
2024-01-21T03:06:41.999Z,62.38
2024-01-21T03:09:10.265Z,62.45
2024-01-21T03:11:41.648Z,62.22
2024-01-21T03:14:09.840Z,62.13
2024-01-21T03:16:38.023Z,62.02
2024-01-21T03:19:06.185Z,61.88
2024-01-21T03:21:34.782Z,61.78
2024-01-21T03:24:02.872Z,61.76
2024-01-21T03:26:31.082Z,61.60
2024-01-21T03:28:59.250Z,61.71
2024-01-21T03:31:29.395Z,61.79
2024-01-21T03:33:57.611Z,61.99
2024-01-21T03:36:26.012Z,61.94
2024-01-21T03:38:54.292Z,62.29
2024-01-21T03:41:22.452Z,62.01
2024-01-21T03:43:50.650Z,61.73
2024-01-21T03:46:19.734Z,61.20
2024-01-21T03:48:48.041Z,61.24
2024-01-21T03:51:16.221Z,61.14
2024-01-21T03:53:44.370Z,61.04
2024-01-21T03:56:22.159Z,61.07
2024-01-21T03:58:50.433Z,61.34
2024-01-21T04:01:19.074Z,61.17
2024-01-21T04:03:47.566Z,61.05
2024-01-21T04:06:15.913Z,61.08
2024-01-21T04:08:44.453Z,61.03
2024-01-21T04:11:12.985Z,60.93
2024-01-21T04:13:41.319Z,60.97
2024-01-21T04:16:09.587Z,61.06
2024-01-21T04:18:38.051Z,60.96
2024-01-21T04:21:06.497Z,60.77
2024-01-21T04:23:34.558Z,60.68
2024-01-21T04:26:02.814Z,60.60
2024-01-21T04:28:31.416Z,60.91
2024-01-21T04:30:59.703Z,60.88
2024-01-21T04:33:28.062Z,60.88
2024-01-21T04:35:56.299Z,60.88
2024-01-21T04:38:26.899Z,61.03
2024-01-21T04:40:55.301Z,61.37
2024-01-21T04:43:23.476Z,61.42
2024-01-21T04:45:51.806Z,61.35
2024-01-21T04:48:20.245Z,61.47
2024-01-21T04:50:48.712Z,61.42
2024-01-21T04:53:16.982Z,61.35
2024-01-21T04:55:45.186Z,61.38
2024-01-21T04:58:13.366Z,61.66
2024-01-21T05:00:41.594Z,62.07
2024-01-21T05:03:10.430Z,61.84
2024-01-21T05:05:38.871Z,61.71
2024-01-21T05:08:07.722Z,61.47
2024-01-21T05:10:36.448Z,61.28
2024-01-21T05:13:05.050Z,61.30
2024-01-21T05:15:33.321Z,61.33
2024-01-21T05:18:01.675Z,61.36
2024-01-21T05:20:30.069Z,61.50
2024-01-21T05:22:58.234Z,61.01
2024-01-21T05:25:26.809Z,60.97
2024-01-21T05:27:54.973Z,60.98
2024-01-21T05:30:23.813Z,60.58
2024-01-21T05:32:52.599Z,60.40
2024-01-21T05:35:20.880Z,59.83
2024-01-21T05:37:49.130Z,58.69
2024-01-21T05:40:17.899Z,57.28
2024-01-21T05:42:46.210Z,58.38
2024-01-21T05:45:14.527Z,60.72
2024-01-21T05:47:42.903Z,62.27
2024-01-21T05:50:11.459Z,64.55
2024-01-21T05:52:39.684Z,64.64
2024-01-21T05:55:08.960Z,63.21
2024-01-21T05:57:37.148Z,61.77
2024-01-21T06:00:06.368Z,60.33
2024-01-21T06:02:42.333Z,59.70
2024-01-21T06:05:10.730Z,59.95
2024-01-21T06:07:38.914Z,59.62
2024-01-21T06:10:08.404Z,57.57
2024-01-21T06:12:37.488Z,57.36
2024-01-21T06:15:06.556Z,58.12
2024-01-21T06:17:34.975Z,57.88
2024-01-21T06:20:05.841Z,62.39
2024-01-21T06:22:34.964Z,65.26
2024-01-21T06:25:03.752Z,65.66
2024-01-21T06:27:32.100Z,65.08
2024-01-21T06:30:15.498Z,64.26
2024-01-21T06:32:53.622Z,63.44
2024-01-21T06:35:28.799Z,62.84
2024-01-21T06:37:57.382Z,62.25
2024-01-21T06:40:25.703Z,60.97
2024-01-21T06:42:54.121Z,60.54
2024-01-21T06:45:22.444Z,59.78
2024-01-21T06:47:51.705Z,57.39
2024-01-21T06:50:20.801Z,56.98
2024-01-21T06:52:50.412Z,56.28
2024-01-21T06:55:18.992Z,56.93
2024-01-21T06:57:47.222Z,58.13
2024-01-21T07:00:16.733Z,59.44
2024-01-21T07:02:44.949Z,62.63
2024-01-21T07:05:13.323Z,65.40
2024-01-21T07:07:41.473Z,65.12
2024-01-21T07:10:10.175Z,63.41
2024-01-21T07:12:38.342Z,61.25
2024-01-21T07:15:07.498Z,59.24
2024-01-21T07:17:35.659Z,56.18
2024-01-21T07:20:04.569Z,55.91
2024-01-21T07:22:32.785Z,57.06
2024-01-21T07:25:02.465Z,57.99
2024-01-21T07:27:32.605Z,58.03
2024-01-21T07:30:00.888Z,58.51
2024-01-21T07:32:29.299Z,58.29
2024-01-21T07:34:57.575Z,58.05
2024-01-21T07:37:25.816Z,58.35
2024-01-21T07:39:54.017Z,57.86
2024-01-21T07:42:22.306Z,58.53
2024-01-21T07:44:50.477Z,58.60
2024-01-21T07:47:18.655Z,59.74
2024-01-21T07:49:48.258Z,60.75
2024-01-21T07:52:18.029Z,60.83
2024-01-21T07:54:46.315Z,64.32
2024-01-21T07:57:15.152Z,69.12
2024-01-21T07:59:43.462Z,67.81
2024-01-21T08:02:11.673Z,64.28
2024-01-21T08:04:39.996Z,62.99
2024-01-21T08:07:08.708Z,61.24
2024-01-21T08:09:37.066Z,59.95
2024-01-21T08:12:06.188Z,57.79
2024-01-21T08:14:34.393Z,56.85
2024-01-21T08:17:03.357Z,56.91
2024-01-21T08:19:31.611Z,57.90
2024-01-21T08:21:59.951Z,59.05
2024-01-21T08:24:28.592Z,59.44
2024-01-21T08:26:59.140Z,65.46
2024-01-21T08:29:29.054Z,65.76
2024-01-21T08:31:57.903Z,64.73
2024-01-21T08:34:30.649Z,63.92
2024-01-21T08:36:59.954Z,62.96
2024-01-21T08:39:28.579Z,61.76
2024-01-21T08:41:56.737Z,61.14
2024-01-21T08:44:24.912Z,60.09
2024-01-21T08:46:53.186Z,58.51
2024-01-21T08:49:21.395Z,60.00
2024-01-21T08:51:49.900Z,57.63
2024-01-21T08:54:18.242Z,59.86
2024-01-21T08:56:47.118Z,59.43
2024-01-21T08:59:15.374Z,65.03
2024-01-21T09:01:43.671Z,65.33
2024-01-21T09:04:12.520Z,64.40
2024-01-21T09:06:43.471Z,62.65
2024-01-21T09:09:14.834Z,61.13
2024-01-21T09:11:43.103Z,57.42
2024-01-21T09:14:11.206Z,56.06
2024-01-21T09:16:39.451Z,55.62
2024-01-21T09:19:08.119Z,55.46
2024-01-21T09:21:36.545Z,57.40
2024-01-21T09:24:06.330Z,56.59
2024-01-21T09:26:35.485Z,58.86
2024-01-21T09:29:03.688Z,62.31
2024-01-21T09:31:31.889Z,63.28
2024-01-21T09:34:00.338Z,61.92
2024-01-21T09:36:28.851Z,61.12
2024-01-21T09:38:57.297Z,58.52
2024-01-21T09:41:51.705Z,54.97
2024-01-21T09:44:21.313Z,55.45
2024-01-21T09:46:54.188Z,55.52
2024-01-21T09:49:22.965Z,54.52
2024-01-21T09:51:52.284Z,57.29
2024-01-21T09:54:21.838Z,62.53
2024-01-21T09:56:50.216Z,64.56
2024-01-21T09:59:19.045Z,63.11
2024-01-21T10:01:47.564Z,61.90
2024-01-21T10:04:16.256Z,56.78
2024-01-21T10:06:45.173Z,54.07
2024-01-21T10:09:15.341Z,54.98
2024-01-21T10:11:44.247Z,60.18
2024-01-21T10:14:12.887Z,62.15
2024-01-21T10:16:44.496Z,61.81
2024-01-21T10:19:16.817Z,56.91
2024-01-21T10:21:45.110Z,51.76
2024-01-21T10:24:13.522Z,54.34
2024-01-21T10:26:44.682Z,54.34
2024-01-21T10:29:13.086Z,54.72
2024-01-21T10:31:41.375Z,55.38
2024-01-21T10:34:11.592Z,58.17
2024-01-21T10:36:39.931Z,55.74
2024-01-21T10:39:10.046Z,59.04
2024-01-21T10:41:38.459Z,62.83
2024-01-21T10:44:06.716Z,64.47
2024-01-21T10:46:35.169Z,61.86
2024-01-21T10:49:03.591Z,59.79
2024-01-21T10:51:32.059Z,57.85
2024-01-21T10:54:03.924Z,56.50
2024-01-21T10:56:32.101Z,54.78
2024-01-21T10:59:00.232Z,57.09
2024-01-21T11:01:28.556Z,60.74
2024-01-21T11:04:11.743Z,56.63
2024-01-21T11:06:48.041Z,55.77
2024-01-21T11:09:22.845Z,55.36
2024-01-21T11:11:55.352Z,58.62
2024-01-21T11:14:38.992Z,60.35
2024-01-21T11:17:09.093Z,61.86
2024-01-21T11:19:49.944Z,60.17
2024-01-21T11:22:21.673Z,56.52
2024-01-21T11:24:51.340Z,54.78
2024-01-21T11:27:22.256Z,55.82
2024-01-21T11:30:00.338Z,54.46
2024-01-21T11:32:30.972Z,55.41
2024-01-21T11:35:15.454Z,55.72
2024-01-21T11:37:44.443Z,56.93
2024-01-21T11:40:13.732Z,57.39
2024-01-21T11:42:43.878Z,56.00
2024-01-21T11:45:12.133Z,56.02
2024-01-21T11:47:41.976Z,56.12
2024-01-21T11:50:11.004Z,55.15
2024-01-21T11:52:39.565Z,55.10
2024-01-21T11:55:08.902Z,55.79
2024-01-21T11:57:37.338Z,61.88
2024-01-21T12:00:07.473Z,62.85
2024-01-21T12:02:40.497Z,61.52
2024-01-21T12:05:09.731Z,56.70
2024-01-21T12:07:38.036Z,53.01
2024-01-21T12:10:07.087Z,52.91
2024-01-21T12:12:35.278Z,55.96
2024-01-21T12:15:04.465Z,58.87
2024-01-21T12:17:33.072Z,60.15
2024-01-21T12:20:01.598Z,61.42
2024-01-21T12:22:41.041Z,62.87
2024-01-21T12:25:10.241Z,63.17
2024-01-21T12:27:44.933Z,60.10
2024-01-21T12:30:16.164Z,56.45
2024-01-21T12:32:53.011Z,55.23
2024-01-21T12:35:24.594Z,56.89
2024-01-21T12:37:53.705Z,56.98
2024-01-21T12:40:21.905Z,56.98
2024-01-21T12:42:50.216Z,56.03
2024-01-21T12:45:18.627Z,55.14
2024-01-21T12:47:47.797Z,55.62
2024-01-21T12:50:16.753Z,59.93
2024-01-21T12:52:45.030Z,62.16
2024-01-21T12:55:13.349Z,61.90
2024-01-21T12:57:41.748Z,59.18
2024-01-21T13:00:11.240Z,56.97
2024-01-21T13:02:40.163Z,54.69
2024-01-21T13:05:09.224Z,54.16
2024-01-21T13:07:37.623Z,54.73
2024-01-21T13:10:06.739Z,54.34
2024-01-21T13:12:35.084Z,54.21
2024-01-21T13:15:03.601Z,54.54
2024-01-21T13:17:35.326Z,55.22
2024-01-21T13:20:04.503Z,60.39
2024-01-21T13:22:33.959Z,61.92
2024-01-21T13:25:02.766Z,63.43
2024-01-21T13:27:41.550Z,63.19
2024-01-21T13:30:29.286Z,60.00
2024-01-21T13:32:57.596Z,53.71
2024-01-21T13:35:26.082Z,55.49
2024-01-21T13:37:55.036Z,54.12
2024-01-21T13:40:23.670Z,54.89
2024-01-21T13:42:52.768Z,54.85
2024-01-21T13:45:21.113Z,60.22
2024-01-21T13:47:49.427Z,59.67
2024-01-21T13:50:17.762Z,58.48
2024-01-21T13:52:46.250Z,57.20
2024-01-21T13:55:15.000Z,56.88
2024-01-21T13:57:43.457Z,56.59
2024-01-21T14:00:12.913Z,57.33
2024-01-21T14:02:41.281Z,57.02
2024-01-21T14:05:10.277Z,56.92
2024-01-21T14:07:38.445Z,56.98
2024-01-21T14:10:07.732Z,57.25
2024-01-21T14:12:39.798Z,57.11
2024-01-21T14:15:09.042Z,57.24
2024-01-21T14:17:37.194Z,57.60
2024-01-21T14:20:06.378Z,59.99
2024-01-21T14:22:34.655Z,59.61
2024-01-21T14:25:27.196Z,59.47
2024-01-21T14:27:56.120Z,60.14
2024-01-21T14:30:35.487Z,59.73
2024-01-21T14:33:04.860Z,60.14
2024-01-21T14:35:33.423Z,60.61
2024-01-21T14:38:01.676Z,60.88
2024-01-21T14:40:29.802Z,61.24
2024-01-21T14:42:58.853Z,61.44
2024-01-21T14:45:27.302Z,64.88
2024-01-21T14:47:55.751Z,68.66
2024-01-21T14:50:23.985Z,70.57
2024-01-21T14:52:52.365Z,70.34
2024-01-21T14:55:20.633Z,67.30
2024-01-21T14:57:48.966Z,64.82
2024-01-21T15:00:18.797Z,62.54
2024-01-21T15:02:47.210Z,61.06
2024-01-21T15:05:15.568Z,58.81
2024-01-21T15:07:48.372Z,55.85
2024-01-21T15:10:18.699Z,55.79
2024-01-21T15:12:47.110Z,55.80
2024-01-21T15:15:18.035Z,56.28
2024-01-21T15:17:48.060Z,57.10
2024-01-21T15:20:17.511Z,57.21
2024-01-21T15:22:46.235Z,56.79
2024-01-21T15:25:14.782Z,56.67
2024-01-21T15:27:43.149Z,56.47
2024-01-21T15:30:12.636Z,56.59
2024-01-21T15:32:41.185Z,56.65
2024-01-21T15:35:09.725Z,57.08
2024-01-21T15:37:37.997Z,57.24
2024-01-21T15:40:07.768Z,58.26
2024-01-21T15:42:36.013Z,58.51
2024-01-21T15:45:11.482Z,58.33
2024-01-21T15:47:40.875Z,58.60
2024-01-21T15:50:10.277Z,59.98
2024-01-21T15:52:38.475Z,60.26
2024-01-21T15:55:07.751Z,61.21
2024-01-21T15:57:36.054Z,62.58
2024-01-21T16:00:05.594Z,67.09
2024-01-21T16:02:38.292Z,70.25
2024-01-21T16:05:07.700Z,69.35
2024-01-21T16:07:35.881Z,67.70
2024-01-21T16:10:04.794Z,65.97
2024-01-21T16:12:33.019Z,65.15
2024-01-21T16:15:01.591Z,63.04
2024-01-21T16:17:30.120Z,61.59
2024-01-21T16:19:58.437Z,60.42
2024-01-21T16:22:26.713Z,58.27
2024-01-21T16:24:55.528Z,55.92
2024-01-21T16:27:30.117Z,55.65
2024-01-21T16:30:01.932Z,56.64
2024-01-21T16:32:30.443Z,56.98
2024-01-21T16:35:01.388Z,56.83
2024-01-21T16:37:30.962Z,56.78
2024-01-21T16:39:59.854Z,56.55
2024-01-21T16:42:28.829Z,56.64
2024-01-21T16:45:00.893Z,56.41
2024-01-21T16:47:29.408Z,56.94
2024-01-21T16:49:57.648Z,58.14
2024-01-21T16:52:29.667Z,59.47
2024-01-21T16:54:58.073Z,59.19
2024-01-21T16:57:26.444Z,60.40
2024-01-21T17:00:09.526Z,62.70
2024-01-21T17:02:38.779Z,69.68
2024-01-21T17:05:08.158Z,70.82
2024-01-21T17:07:37.589Z,68.32
2024-01-21T17:10:08.166Z,66.75
2024-01-21T17:12:39.217Z,66.16
2024-01-21T17:15:07.968Z,64.51
2024-01-21T17:17:36.393Z,63.45
2024-01-21T17:20:11.700Z,62.31
2024-01-21T17:22:39.943Z,61.54
2024-01-21T17:25:09.396Z,61.11
2024-01-21T17:27:37.672Z,60.39
2024-01-21T17:30:07.512Z,59.79
2024-01-21T17:32:35.949Z,57.84
2024-01-21T17:35:05.443Z,56.24
2024-01-21T17:37:33.652Z,55.62
2024-01-21T17:40:01.821Z,55.45
2024-01-21T17:42:30.084Z,56.06
2024-01-21T17:44:59.705Z,55.72
2024-01-21T17:47:29.136Z,55.60
2024-01-21T17:49:57.600Z,57.39
2024-01-21T17:52:25.656Z,60.08
2024-01-21T17:54:53.965Z,59.52
2024-01-21T17:57:22.094Z,59.38
2024-01-21T17:59:50.389Z,60.27
2024-01-21T18:02:18.646Z,65.88
2024-01-21T18:04:46.961Z,69.83
2024-01-21T18:07:15.241Z,69.65
2024-01-21T18:09:43.571Z,65.89
2024-01-21T18:12:11.875Z,63.56
2024-01-21T18:14:40.194Z,63.16
2024-01-21T18:17:08.497Z,62.17
2024-01-21T18:19:37.401Z,61.45
2024-01-21T18:22:06.481Z,60.22
2024-01-21T18:24:34.759Z,58.67
2024-01-21T18:27:03.019Z,56.37
2024-01-21T18:29:35.930Z,56.48
2024-01-21T18:32:06.756Z,57.92
2024-01-21T18:34:36.112Z,59.44
2024-01-21T18:37:06.214Z,58.57
2024-01-21T18:39:34.454Z,60.71
2024-01-21T18:42:02.914Z,60.89
2024-01-21T18:44:33.461Z,61.91
2024-01-21T18:47:01.776Z,66.25
2024-01-21T18:49:31.362Z,67.78
2024-01-21T18:52:05.207Z,67.05
2024-01-21T18:54:37.551Z,64.11
2024-01-21T18:57:07.482Z,63.12
2024-01-21T18:59:35.850Z,61.61
2024-01-21T19:02:05.248Z,60.27
2024-01-21T19:04:38.674Z,58.31
2024-01-21T19:07:10.872Z,56.27
2024-01-21T19:09:40.020Z,56.91
2024-01-21T19:12:09.500Z,60.24
2024-01-21T19:14:38.263Z,60.16
2024-01-21T19:17:06.630Z,62.96
2024-01-21T19:19:35.400Z,64.98
2024-01-21T19:22:03.902Z,65.02
2024-01-21T19:24:33.524Z,62.57
2024-01-21T19:27:01.697Z,61.95
2024-01-21T19:29:30.007Z,61.37
2024-01-21T19:31:58.128Z,59.83
2024-01-21T19:34:26.458Z,57.88
2024-01-21T19:36:55.968Z,55.84
2024-01-21T19:39:24.897Z,56.23
2024-01-21T19:41:53.243Z,58.06
2024-01-21T19:44:21.596Z,59.32
2024-01-21T19:46:49.927Z,60.28
2024-01-21T19:49:18.103Z,62.64
2024-01-21T19:51:47.345Z,64.77
2024-01-21T19:54:18.049Z,63.72
2024-01-21T19:56:46.464Z,62.37
2024-01-21T19:59:15.206Z,61.14
2024-01-21T20:01:46.434Z,59.85
2024-01-21T20:04:16.152Z,57.65
2024-01-21T20:06:44.543Z,56.14
2024-01-21T20:09:13.173Z,56.99
2024-01-21T20:11:41.515Z,58.22
2024-01-21T20:14:10.374Z,59.00
2024-01-21T20:16:40.366Z,59.88
2024-01-21T20:19:09.438Z,60.10
2024-01-21T20:21:39.349Z,58.99
2024-01-21T20:24:08.125Z,61.16
2024-01-21T20:26:36.696Z,60.99
2024-01-21T20:29:05.038Z,61.50
2024-01-21T20:31:33.217Z,66.48
2024-01-21T20:34:01.671Z,68.09
2024-01-21T20:36:30.135Z,67.65
2024-01-21T20:38:58.907Z,65.65
2024-01-21T20:41:27.982Z,64.60
2024-01-21T20:43:56.228Z,62.00
2024-01-21T20:46:24.601Z,61.32
2024-01-21T20:48:53.219Z,60.60
2024-01-21T20:51:21.666Z,57.67
2024-01-21T20:53:50.283Z,58.14
2024-01-21T20:56:21.402Z,60.10
2024-01-21T20:58:49.781Z,61.25
2024-01-21T21:01:18.693Z,64.54
2024-01-21T21:03:47.020Z,64.15
2024-01-21T21:06:15.493Z,63.06
2024-01-21T21:08:44.717Z,61.80
2024-01-21T21:11:13.329Z,60.65
2024-01-21T21:13:43.264Z,59.15
2024-01-21T21:16:12.031Z,57.26
2024-01-21T21:18:40.360Z,58.46
2024-01-21T21:21:08.660Z,61.62
2024-01-21T21:23:36.928Z,63.78
2024-01-21T21:26:05.299Z,65.16
2024-01-21T21:28:33.474Z,62.57
2024-01-21T21:31:01.597Z,61.53
2024-01-21T21:33:29.938Z,60.30
2024-01-21T21:35:59.332Z,58.60
2024-01-21T21:38:27.820Z,58.20
2024-01-21T21:40:56.054Z,59.67
2024-01-21T21:43:24.350Z,61.32
2024-01-21T21:45:52.525Z,64.19
2024-01-21T21:48:21.254Z,63.60
2024-01-21T21:50:50.321Z,62.47
2024-01-21T21:53:19.415Z,61.80
2024-01-21T21:55:48.295Z,61.82
2024-01-21T21:58:16.678Z,59.59
2024-01-21T22:00:48.905Z,54.73
2024-01-21T22:03:17.576Z,54.61
2024-01-21T22:05:46.367Z,54.67
2024-01-21T22:08:15.510Z,55.14
2024-01-21T22:10:43.880Z,54.90
2024-01-21T22:13:13.280Z,55.55
2024-01-21T22:15:43.163Z,57.08
2024-01-21T22:18:12.432Z,59.91
2024-01-21T22:20:42.301Z,65.30
2024-01-21T22:23:10.699Z,66.95
2024-01-21T22:25:39.077Z,64.06
2024-01-21T22:28:07.760Z,62.14
2024-01-21T22:30:36.018Z,58.27
2024-01-21T22:33:05.154Z,55.00
2024-01-21T22:35:33.654Z,56.04
2024-01-21T22:38:02.087Z,57.83
2024-01-21T22:40:31.445Z,60.88
2024-01-21T22:42:59.857Z,61.46
2024-01-21T22:45:28.761Z,64.60
2024-01-21T22:47:57.218Z,64.41
2024-01-21T22:50:25.760Z,60.08
2024-01-21T22:52:53.980Z,58.08
2024-01-21T22:55:22.208Z,58.27
2024-01-21T22:57:50.533Z,58.77
2024-01-21T23:00:22.872Z,61.35
2024-01-21T23:02:51.332Z,62.82
2024-01-21T23:05:20.995Z,65.25
2024-01-21T23:07:49.929Z,65.38
2024-01-21T23:10:18.206Z,61.60
2024-01-21T23:12:46.562Z,58.56
2024-01-21T23:15:15.351Z,57.78
2024-01-21T23:17:43.683Z,58.22
2024-01-21T23:20:13.093Z,59.11
2024-01-21T23:22:41.516Z,62.33
2024-01-21T23:25:09.847Z,64.97
2024-01-21T23:27:38.301Z,65.43
2024-01-21T23:30:07.876Z,63.18
2024-01-21T23:32:36.152Z,60.81
2024-01-21T23:35:05.080Z,56.79
2024-01-21T23:37:33.379Z,55.13
2024-01-21T23:40:01.651Z,55.56
2024-01-21T23:42:29.861Z,58.38
2024-01-21T23:44:58.111Z,62.01
2024-01-21T23:47:26.377Z,64.22
2024-01-21T23:49:54.648Z,64.05
2024-01-21T23:52:22.935Z,61.84
2024-01-21T23:54:51.197Z,60.77
2024-01-21T23:57:20.808Z,58.69
2024-01-21T23:59:49.121Z,56.19
